createdAt,value
2019-04-07T00:06:46.388Z,64.25
2019-04-07T00:09:20.526Z,64.82
2019-04-07T00:13:57.959Z,64.71
2019-04-07T00:16:33.394Z,64.38
2019-04-07T00:19:08.652Z,63.56
2019-04-07T00:21:43.927Z,63.56
2019-04-07T00:24:18.458Z,63.28
2019-04-07T00:26:52.872Z,63.09
2019-04-07T00:29:27.720Z,63.01
2019-04-07T00:32:02.605Z,63.06
2019-04-07T00:34:38.164Z,62.99
2019-04-07T00:37:14.066Z,62.89
2019-04-07T00:39:49.029Z,62.80
2019-04-07T00:42:22.633Z,62.65
2019-04-07T00:44:56.654Z,62.66
2019-04-07T00:47:30.658Z,62.54
2019-04-07T00:50:06.545Z,62.69
2019-04-07T00:52:41.698Z,62.85
2019-04-07T00:55:15.238Z,63.20
2019-04-07T00:57:49.265Z,63.43
2019-04-07T01:00:25.174Z,63.84
2019-04-07T01:03:00.063Z,64.33
2019-04-07T01:05:36.663Z,64.76
2019-04-07T01:08:10.775Z,65.08
2019-04-07T01:10:45.983Z,65.30
2019-04-07T01:13:21.074Z,65.60
2019-04-07T01:15:54.883Z,66.02
2019-04-07T01:20:17.639Z,66.27
2019-04-07T01:22:52.853Z,66.63
2019-04-07T01:25:27.948Z,67.27
2019-04-07T01:28:03.074Z,67.76
2019-04-07T01:30:37.086Z,68.22
2019-04-07T01:33:11.585Z,68.18
2019-04-07T01:35:49.211Z,68.32
2019-04-07T01:38:23.644Z,68.68
2019-04-07T01:41:04.144Z,69.07
2019-04-07T01:43:48.172Z,69.64
2019-04-07T01:46:40.519Z,69.88
2019-04-07T01:49:43.567Z,70.15
2019-04-07T01:52:23.651Z,70.42
2019-04-07T01:55:16.416Z,70.59
2019-04-07T01:58:16.353Z,71.08
2019-04-07T02:01:08.177Z,71.23
2019-04-07T02:03:59.215Z,71.41
2019-04-07T02:06:59.757Z,71.34
2019-04-07T02:10:00.499Z,71.51
2019-04-07T02:12:49.895Z,71.68
2019-04-07T02:15:32.072Z,71.94
2019-04-07T02:18:15.608Z,72.15
2019-04-07T02:21:23.751Z,72.17
2019-04-07T02:24:15.833Z,72.60
2019-04-07T02:27:16.461Z,72.29
2019-04-07T02:30:19.944Z,72.19
2019-04-07T02:33:12.792Z,72.23
2019-04-07T02:36:17.808Z,71.95
2019-04-07T02:38:58.830Z,71.68
2019-04-07T02:41:57.081Z,71.55
2019-04-07T02:44:55.205Z,71.27
2019-04-07T02:47:59.773Z,70.88
2019-04-07T02:50:53.446Z,70.64
2019-04-07T02:53:39.104Z,70.55
2019-04-07T02:56:36.196Z,70.54
2019-04-07T02:59:21.529Z,70.40
2019-04-07T03:02:15.474Z,70.28
2019-04-07T03:05:13.686Z,70.26
2019-04-07T03:08:10.651Z,70.19
2019-04-07T03:10:54.342Z,70.12
2019-04-07T03:13:46.829Z,69.95
2019-04-07T03:16:58.834Z,69.71
2019-04-07T03:19:58.694Z,69.50
2019-04-07T03:23:03.992Z,69.18
2019-04-07T03:25:56.703Z,68.98
2019-04-07T03:28:39.961Z,68.87
2019-04-07T03:31:27.323Z,68.87
2019-04-07T03:34:24.127Z,68.99
2019-04-07T03:37:26.025Z,68.97
2019-04-07T03:40:06.627Z,69.06
2019-04-07T03:43:10.016Z,68.92
2019-04-07T03:45:52.073Z,68.82
2019-04-07T03:48:51.801Z,68.86
2019-04-07T03:51:54.573Z,68.95
2019-04-07T03:54:48.355Z,68.87
2019-04-07T03:57:54.888Z,68.77
2019-04-07T04:01:39.376Z,68.64
2019-04-07T04:04:34.217Z,68.60
2019-04-07T04:07:25.625Z,68.32
2019-04-07T04:10:12.797Z,68.23
2019-04-07T04:12:56.897Z,68.21
2019-04-07T04:15:39.681Z,68.12
2019-04-07T04:18:14.586Z,67.77
2019-04-07T04:20:48.622Z,67.17
2019-04-07T04:23:22.714Z,66.90
2019-04-07T04:25:56.239Z,66.08
2019-04-07T04:28:30.685Z,65.70
2019-04-07T04:31:06.723Z,65.06
2019-04-07T04:33:41.775Z,64.50
2019-04-07T04:36:17.773Z,64.10
2019-04-07T04:38:54.116Z,63.72
2019-04-07T04:41:29.413Z,63.34
2019-04-07T04:44:04.666Z,62.89
2019-04-07T04:46:42.671Z,62.62
2019-04-07T04:49:17.775Z,62.13
2019-04-07T04:51:54.221Z,61.64
2019-04-07T04:54:31.694Z,61.06
2019-04-07T04:57:09.093Z,60.58
2019-04-07T04:59:44.314Z,60.07
2019-04-07T05:02:19.854Z,60.07
2019-04-07T05:04:53.233Z,59.73
2019-04-07T05:07:27.507Z,59.64
2019-04-07T05:10:02.222Z,59.28
2019-04-07T05:12:37.954Z,58.60
2019-04-07T05:15:13.990Z,58.60
2019-04-07T05:17:49.596Z,58.44
2019-04-07T05:20:24.046Z,58.35
2019-04-07T05:22:58.728Z,58.34
2019-04-07T05:25:33.789Z,58.35
2019-04-07T05:28:09.076Z,58.35
2019-04-07T05:30:42.518Z,57.98
2019-04-07T05:33:16.854Z,57.62
2019-04-07T05:35:51.729Z,56.79
2019-04-07T05:38:26.792Z,57.38
2019-04-07T05:41:00.319Z,57.29
2019-04-07T05:43:34.735Z,56.92
2019-04-07T05:46:10.682Z,56.10
2019-04-07T05:48:45.334Z,55.72
2019-04-07T05:51:20.938Z,55.62
2019-04-07T05:53:55.868Z,55.09
2019-04-07T05:56:29.515Z,54.44
2019-04-07T05:59:03.383Z,54.71
2019-04-07T06:01:38.038Z,54.37
2019-04-07T06:04:16.947Z,54.44
2019-04-07T06:06:54.167Z,54.46
2019-04-07T06:09:28.062Z,54.46
2019-04-07T06:12:08.462Z,54.93
2019-04-07T06:14:40.983Z,55.64
2019-04-07T06:17:17.110Z,55.88
2019-04-07T06:19:52.694Z,55.75
2019-04-07T06:22:28.399Z,55.63
2019-04-07T06:25:04.599Z,55.40
2019-04-07T06:27:40.547Z,55.30
2019-04-07T06:30:16.551Z,55.30
2019-04-07T06:32:52.813Z,55.49
2019-04-07T06:35:28.152Z,55.78
2019-04-07T06:38:06.710Z,56.08
2019-04-07T06:40:40.544Z,56.25
2019-04-07T06:43:15.760Z,56.12
2019-04-07T06:46:08.648Z,56.00
2019-04-07T06:49:11.172Z,55.89
2019-04-07T06:52:02.914Z,55.54
2019-04-07T06:54:41.521Z,55.54
2019-04-07T06:57:36.039Z,55.18
2019-04-07T07:00:38.877Z,55.04
2019-04-07T07:03:29.108Z,54.80
2019-04-07T07:06:18.493Z,54.53
2019-04-07T07:09:13.774Z,54.51
2019-04-07T07:12:18.333Z,54.41
2019-04-07T07:14:58.271Z,54.20
2019-04-07T07:17:59.047Z,53.72
2019-04-07T07:20:55.679Z,52.90
2019-04-07T07:23:37.527Z,52.21
2019-04-07T07:26:13.467Z,52.21
2019-04-07T07:28:56.463Z,50.43
2019-04-07T07:31:32.353Z,50.43
2019-04-07T07:34:09.290Z,50.70
2019-04-07T07:36:46.522Z,50.53
2019-04-07T07:39:22.973Z,47.75
2019-04-07T07:41:58.499Z,47.75
2019-04-07T07:44:36.689Z,46.55
2019-04-07T07:47:11.870Z,45.05
2019-04-07T07:49:48.208Z,43.32
2019-04-07T07:52:23.507Z,42.36
2019-04-07T07:55:00.891Z,42.36
2019-04-07T07:57:35.548Z,42.30
2019-04-07T08:00:11.338Z,42.35
2019-04-07T08:02:50.210Z,42.49
2019-04-07T08:05:24.119Z,41.77
2019-04-07T08:08:00.610Z,41.96
2019-04-07T08:10:36.400Z,41.59
2019-04-07T08:13:11.501Z,40.84
2019-04-07T08:15:45.765Z,41.27
2019-04-07T08:18:21.010Z,41.88
2019-04-07T08:20:56.776Z,41.79
2019-04-07T08:23:32.036Z,41.79
2019-04-07T08:26:06.771Z,41.47
2019-04-07T08:28:42.718Z,41.10
2019-04-07T08:31:21.124Z,41.24
2019-04-07T08:33:54.882Z,41.18
2019-04-07T08:36:30.207Z,41.07
2019-04-07T08:39:20.845Z,40.78
2019-04-07T08:41:48.215Z,41.02
2019-04-07T08:44:26.960Z,41.02
2019-04-07T08:47:01.385Z,41.21
2019-04-07T08:49:36.552Z,41.21
2019-04-07T08:52:12.793Z,41.19
2019-04-07T08:54:50.557Z,39.92
2019-04-07T08:57:27.272Z,40.06
2019-04-07T09:00:01.951Z,40.59
2019-04-07T09:02:37.548Z,40.59
2019-04-07T09:05:11.619Z,40.65
2019-04-07T09:07:46.017Z,40.84
2019-04-07T09:10:33.257Z,41.04
2019-04-07T09:13:09.534Z,41.40
2019-04-07T09:15:54.558Z,41.40
2019-04-07T09:18:57.439Z,42.27
2019-04-07T09:21:52.538Z,41.72
2019-04-07T09:24:46.139Z,41.48
2019-04-07T09:27:49.502Z,41.48
2019-04-07T09:30:40.039Z,41.20
2019-04-07T09:33:53.976Z,41.00
2019-04-07T09:36:47.908Z,39.65
2019-04-07T09:39:56.280Z,39.31
2019-04-07T09:42:35.996Z,39.44
2019-04-07T09:45:33.536Z,39.50
2019-04-07T09:48:30.643Z,39.50
2019-04-07T09:51:15.454Z,39.78
2019-04-07T09:54:12.372Z,40.10
2019-04-07T09:57:07.396Z,40.10
2019-04-07T10:00:08.575Z,39.64
2019-04-07T10:03:09.552Z,39.64
2019-04-07T10:06:01.811Z,39.51
2019-04-07T10:08:47.756Z,39.45
2019-04-07T10:11:40.692Z,38.63
2019-04-07T10:14:30.754Z,38.42
2019-04-07T10:17:22.155Z,38.42
2019-04-07T10:20:22.044Z,38.37
2019-04-07T10:23:33.365Z,38.47
2019-04-07T10:26:24.716Z,38.14
2019-04-07T10:29:23.058Z,37.69
2019-04-07T10:32:07.892Z,37.47
2019-04-07T10:34:54.376Z,37.66
2019-04-07T10:37:53.027Z,37.65
2019-04-07T10:40:47.261Z,37.49
2019-04-07T10:43:39.393Z,37.51
2019-04-07T10:46:23.065Z,37.51
2019-04-07T10:52:31.548Z,36.84
2019-04-07T10:55:22.219Z,36.16
2019-04-07T10:58:10.607Z,36.16
2019-04-07T11:01:05.123Z,34.86
2019-04-07T11:04:00.227Z,34.86
2019-04-07T11:06:52.704Z,34.59
2019-04-07T11:09:45.891Z,34.52
2019-04-07T11:12:58.216Z,34.52
2019-04-07T11:16:08.212Z,34.67
2019-04-07T11:18:54.955Z,34.67
2019-04-07T11:22:01.241Z,33.96
2019-04-07T11:24:51.497Z,33.96
2019-04-07T11:27:49.030Z,34.18
2019-04-07T11:30:42.118Z,34.05
2019-04-07T11:33:29.044Z,34.05
2019-04-07T11:36:28.898Z,33.36
2019-04-07T11:39:17.715Z,33.36
2019-04-07T11:42:21.771Z,33.60
2019-04-07T11:45:23.704Z,33.52
2019-04-07T11:48:18.829Z,33.58
2019-04-07T11:51:16.722Z,32.67
2019-04-07T11:54:16.485Z,32.67
2019-04-07T11:57:06.866Z,32.04
2019-04-07T12:00:03.690Z,32.18
2019-04-07T12:03:05.032Z,32.25
2019-04-07T12:05:55.807Z,31.99
2019-04-07T12:08:50.024Z,31.90
2019-04-07T12:11:43.264Z,32.10
2019-04-07T12:14:37.390Z,32.29
2019-04-07T12:17:30.085Z,31.90
2019-04-07T12:20:12.315Z,32.06
2019-04-07T12:23:00.399Z,32.61
2019-04-07T12:26:06.068Z,33.01
2019-04-07T12:28:58.379Z,33.01
2019-04-07T12:31:52.138Z,32.90
2019-04-07T12:34:55.653Z,32.78
2019-04-07T12:37:46.592Z,32.76
2019-04-07T12:40:39.600Z,32.94
2019-04-07T12:43:42.784Z,32.94
2019-04-07T12:46:24.655Z,32.91
2019-04-07T12:49:19.760Z,32.66
2019-04-07T12:52:17.373Z,32.53
2019-04-07T12:55:18.028Z,32.39
2019-04-07T12:58:11.360Z,32.47
2019-04-07T13:01:12.924Z,32.34
2019-04-07T13:04:04.681Z,31.90
2019-04-07T13:06:57.781Z,31.90
2019-04-07T13:10:03.369Z,31.95
2019-04-07T13:12:59.374Z,31.83
2019-04-07T13:15:53.803Z,31.67
2019-04-07T13:18:46.696Z,30.44
2019-04-07T13:21:56.516Z,27.73
2019-04-07T13:24:48.596Z,24.85
2019-04-07T13:27:45.824Z,22.61
2019-04-07T13:30:32.626Z,20.94
2019-04-07T13:33:33.008Z,19.56
2019-04-07T13:36:17.987Z,18.97
2019-04-07T13:38:57.832Z,19.22
2019-04-07T13:41:56.406Z,19.15
2019-04-07T13:45:02.552Z,19.10
2019-04-07T13:48:15.818Z,20.44
2019-04-07T13:51:21.536Z,22.18
2019-04-07T13:54:38.351Z,23.24
2019-04-07T13:57:32.334Z,21.90
2019-04-07T14:00:25.236Z,20.32
2019-04-07T14:03:25.485Z,19.12
2019-04-07T14:06:11.270Z,18.00
2019-04-07T14:09:04.370Z,17.24
2019-04-07T14:12:06.939Z,16.70
2019-04-07T14:15:15.887Z,16.85
2019-04-07T14:18:13.413Z,17.75
2019-04-07T14:21:07.552Z,19.75
2019-04-07T14:24:11.364Z,21.77
2019-04-07T14:27:02.155Z,23.29
2019-04-07T14:29:53.177Z,24.82
2019-04-07T14:32:40.367Z,25.95
2019-04-07T14:35:39.038Z,27.09
2019-04-07T14:38:31.613Z,27.56
2019-04-07T14:41:16.054Z,26.06
2019-04-07T14:44:10.175Z,23.95
2019-04-07T14:47:05.331Z,22.58
2019-04-07T14:50:00.466Z,22.18
2019-04-07T14:52:54.977Z,22.88
2019-04-07T14:55:52.783Z,24.47
2019-04-07T14:59:02.942Z,26.13
2019-04-07T15:02:00.324Z,27.27
2019-04-07T15:04:42.048Z,28.31
2019-04-07T15:07:31.204Z,30.21
2019-04-07T15:10:15.932Z,30.21
2019-04-07T15:16:33.964Z,31.19
2019-04-07T15:19:09.615Z,32.12
2019-04-07T15:22:12.126Z,33.07
2019-04-07T16:30:19.012Z,38.07
2019-04-07T16:32:54.783Z,38.28
2019-04-07T16:35:29.964Z,38.28
2019-04-07T16:38:03.520Z,38.73
2019-04-07T16:40:42.126Z,38.73
2019-04-07T16:43:18.940Z,39.03
2019-04-07T16:45:54.759Z,39.03
2019-04-07T16:48:30.494Z,39.13
2019-04-07T16:51:06.050Z,39.37
2019-04-07T16:53:43.340Z,39.64
2019-04-07T16:56:21.869Z,39.97
2019-04-07T16:59:01.383Z,40.02
2019-04-07T17:01:37.863Z,39.86
2019-04-07T17:04:13.454Z,39.91
2019-04-07T17:07:03.299Z,40.31
2019-04-07T17:09:36.605Z,40.31
2019-04-07T17:12:15.010Z,40.26
2019-04-07T17:14:51.126Z,40.63
2019-04-07T17:17:28.269Z,40.71
2019-04-07T17:20:04.704Z,40.80
2019-04-07T17:22:40.387Z,40.91
2019-04-07T17:25:15.324Z,41.17
2019-04-07T17:27:50.893Z,41.21
2019-04-07T17:30:28.071Z,41.49
2019-04-07T17:33:06.662Z,41.47
2019-04-07T17:35:46.116Z,41.59
2019-04-07T17:38:26.190Z,41.68
2019-04-07T17:41:02.389Z,41.72
2019-04-07T17:43:57.936Z,41.80
2019-04-07T17:46:50.220Z,41.77
2019-04-07T17:49:59.863Z,41.77
2019-04-07T17:53:00.114Z,41.86
2019-04-07T17:55:52.773Z,41.96
2019-04-07T17:58:53.430Z,41.96
2019-04-07T18:01:46.330Z,42.37
2019-04-07T18:04:53.772Z,42.37
2019-04-07T18:07:57.199Z,42.73
2019-04-07T18:10:59.591Z,43.35
2019-04-07T18:14:05.752Z,43.35
2019-04-07T18:17:06.595Z,43.62
2019-04-07T18:20:06.553Z,43.32
2019-04-07T18:22:53.212Z,43.32
2019-04-07T18:25:51.858Z,43.60
2019-04-07T18:28:43.327Z,43.90
2019-04-07T18:31:40.197Z,43.90
2019-04-07T18:34:42.999Z,43.91
2019-04-07T18:37:54.354Z,44.22
2019-04-07T18:41:01.664Z,44.74
2019-04-07T18:44:04.505Z,45.11
2019-04-07T18:47:02.661Z,45.44
2019-04-07T18:49:55.930Z,46.21
2019-04-07T18:52:55.543Z,46.42
2019-04-07T18:55:40.285Z,46.57
2019-04-07T18:58:38.380Z,46.57
2019-04-07T19:01:25.417Z,46.87
2019-04-07T19:04:24.201Z,46.87
2019-04-07T19:07:15.176Z,47.03
2019-04-07T19:10:17.638Z,47.03
2019-04-07T19:13:12.124Z,47.02
2019-04-07T19:16:04.175Z,47.01
2019-04-07T19:18:58.559Z,47.19
2019-04-07T19:22:00.366Z,47.19
2019-04-07T19:24:57.861Z,47.39
2019-04-07T19:28:04.770Z,47.53
2019-04-07T19:31:03.156Z,47.53
2019-04-07T19:33:58.698Z,47.57
2019-04-07T19:36:52.178Z,47.73
2019-04-07T19:39:53.524Z,47.83
2019-04-07T19:42:54.736Z,47.96
2019-04-07T19:45:56.213Z,48.00
2019-04-07T19:48:54.433Z,48.12
2019-04-07T19:52:03.262Z,48.46
2019-04-07T19:55:01.813Z,48.59
2019-04-07T19:58:01.944Z,48.59
2019-04-07T20:00:56.625Z,48.89
2019-04-07T20:04:10.558Z,48.89
2019-04-07T20:07:03.570Z,48.53
2019-04-07T20:10:06.704Z,48.49
2019-04-07T20:13:00.749Z,48.76
2019-04-07T20:15:59.179Z,49.02
2019-04-07T20:18:59.501Z,49.08
2019-04-07T20:21:58.299Z,49.92
2019-04-07T20:25:08.746Z,49.92
2019-04-07T20:28:09.473Z,49.84
2019-04-07T20:31:10.550Z,49.88
2019-04-07T20:34:11.817Z,49.88
2019-04-07T20:37:09.362Z,49.92
2019-04-07T20:39:56.867Z,50.22
2019-04-07T20:42:48.445Z,50.24
2019-04-07T20:45:47.461Z,50.43
2019-04-07T20:48:39.385Z,50.46
2019-04-07T20:51:48.068Z,50.61
2019-04-07T20:54:47.571Z,50.77
2019-04-07T20:57:46.347Z,50.79
2019-04-07T21:00:38.158Z,50.67
2019-04-07T21:03:49.316Z,50.62
2019-04-07T21:06:40.555Z,50.67
2019-04-07T21:09:43.903Z,50.75
2019-04-07T21:12:44.777Z,50.69
2019-04-07T21:15:36.071Z,50.76
2019-04-07T21:18:22.401Z,50.86
2019-04-07T21:21:25.656Z,50.87
2019-04-07T21:24:34.557Z,50.89
2019-04-07T21:27:27.957Z,50.90
2019-04-07T21:30:16.385Z,51.02
2019-04-07T21:33:17.399Z,51.07
2019-04-07T21:36:23.808Z,51.13
2019-04-07T21:39:21.950Z,51.17
2019-04-07T21:42:32.673Z,51.14
2019-04-07T21:45:35.135Z,51.19
2019-04-07T21:48:31.992Z,51.34
2019-04-07T21:51:29.260Z,51.47
2019-04-07T21:54:14.665Z,51.55
2019-04-07T21:57:10.206Z,51.74
2019-04-07T22:00:11.089Z,51.76
2019-04-07T22:02:59.396Z,51.83
2019-04-07T22:05:58.069Z,52.18
2019-04-07T22:08:45.446Z,52.29
2019-04-07T22:11:24.718Z,52.43
2019-04-07T22:13:57.592Z,52.67
2019-04-07T22:16:32.782Z,52.98
2019-04-07T22:19:11.860Z,52.97
2019-04-07T22:21:44.521Z,52.95
2019-04-07T22:24:17.460Z,53.26
2019-04-07T22:26:51.570Z,53.36
2019-04-07T22:29:24.878Z,53.53
2019-04-07T22:31:59.739Z,53.49
2019-04-07T22:34:35.629Z,53.66
2019-04-07T22:37:12.169Z,53.85
2019-04-07T22:39:47.361Z,54.02
2019-04-07T22:42:22.449Z,54.04
2019-04-07T22:44:57.854Z,54.14
2019-04-07T22:47:34.037Z,54.24
2019-04-07T22:50:08.006Z,54.33
2019-04-07T22:52:41.973Z,54.22
2019-04-07T22:55:17.308Z,54.50
2019-04-07T22:57:53.698Z,54.69
2019-04-07T23:00:28.872Z,54.71
2019-04-07T23:03:02.107Z,54.70
2019-04-07T23:05:36.103Z,54.79
2019-04-07T23:08:10.796Z,54.74
2019-04-07T23:10:46.172Z,54.78
2019-04-07T23:13:22.154Z,54.91
2019-04-07T23:16:07.134Z,55.06
2019-04-07T23:18:33.835Z,55.06
2019-04-07T23:21:07.974Z,55.16
2019-04-07T23:23:42.053Z,55.23
2019-04-07T23:26:15.957Z,55.33
2019-04-07T23:28:51.274Z,55.39
2019-04-07T23:31:28.310Z,55.33
2019-04-07T23:34:03.263Z,55.50
2019-04-07T23:36:38.229Z,55.76
2019-04-07T23:39:15.270Z,55.98
2019-04-07T23:41:51.255Z,56.02
2019-04-07T23:44:26.391Z,56.15
2019-04-07T23:47:02.469Z,56.31
2019-04-07T23:49:38.665Z,56.49
2019-04-07T23:52:14.585Z,56.49
2019-04-07T23:54:48.818Z,56.58
2019-04-07T23:57:24.240Z,56.62
2019-04-07T23:59:58.814Z,56.69
